Time;durP1;ratioP1;P1;durP2;ratioP2;P2;SDS_P1;SDS_P2;PMS_P1;PMS_P2;Temp;Humidity;BMP_temperature;BMP_pressure;BME280_temperature;BME280_humidity;BME280_pressure;Samples;Min_cycle;Max_cycle;Signal;HPM_P1;HPM_P2
2022/09/04 00:02:14;;;;;;;0.67;0.67;;;;;15.40;96031.00;;;;5095646;28;20218;-62
2022/09/04 00:04:52;;;;;;;0.50;0.50;;;;;15.40;96027.00;;;;5113672;28;20213;-60
2022/09/04 00:07:26;;;;;;;1.03;1.03;;;;;15.30;96026.00;;;;5113529;28;20189;-61
2022/09/04 00:10:08;;;;;;;0.97;0.97;;;;;15.30;96022.00;;;;5113450;28;20286;-63
2022/09/04 00:12:44;;;;;;;0.80;0.80;;;;;15.30;96022.00;;;;5095530;28;20198;-59
2022/09/04 00:15:16;;;;;;;2.07;1.83;;;;;15.10;96022.00;;;;5113345;28;20290;-61
2022/09/04 00:17:50;;;;;;;0.70;0.70;;;;;15.10;96029.00;;;;5113514;28;20185;-61
2022/09/04 00:20:27;;;;;;;0.43;0.43;;;;;15.00;96028.00;;;;5095496;28;20204;-61
2022/09/04 00:23:01;;;;;;;0.60;0.60;;;;;15.00;96032.00;;;;5095407;28;20272;-62
2022/09/04 00:25:40;;;;;;;1.00;1.00;;;;;15.00;96030.00;;;;5113328;28;20648;-61
2022/09/04 00:28:16;;;;;;;0.90;0.90;;;;;15.00;96031.00;;;;5114450;28;20280;-61
2022/09/04 00:30:54;;;;;;;0.60;0.60;;;;;15.00;96031.00;;;;5116788;28;20292;-61
2022/09/04 00:33:28;;;;;;;0.60;0.60;;;;;14.80;96036.00;;;;5116727;28;20285;-59
2022/09/04 00:36:00;;;;;;;0.80;0.80;;;;;14.90;96029.00;;;;5116712;28;20236;-61
2022/09/04 00:38:39;;;;;;;0.70;0.70;;;;;14.90;96029.00;;;;5116851;28;20263;-59
2022/09/04 00:41:15;;;;;;;0.60;0.60;;;;;14.90;96034.00;;;;5116667;28;20236;-59
2022/09/04 00:44:16;;;;;;;0.70;0.70;;;;;14.90;96031.00;;;;5116465;28;20273;-59
2022/09/04 00:47:05;;;;;;;1.07;1.07;;;;;14.80;96035.00;;;;5098469;28;20289;-60
2022/09/04 00:49:50;;;;;;;0.60;0.60;;;;;14.80;96039.00;;;;5116453;28;20267;-63
2022/09/04 00:52:31;;;;;;;0.60;0.60;;;;;14.90;96039.00;;;;5116488;28;20213;-61
2022/09/04 00:55:26;;;;;;;0.53;0.53;;;;;14.80;96044.00;;;;5116369;28;20222;-61
2022/09/04 00:58:11;;;;;;;0.80;0.80;;;;;14.70;96043.00;;;;5116421;28;20206;-61
2022/09/04 01:00:42;;;;;;;0.80;0.80;;;;;14.70;96045.00;;;;5116336;28;20269;-61
2022/09/04 01:03:39;;;;;;;0.60;0.60;;;;;14.60;96056.00;;;;5116352;28;20689;-62
2022/09/04 01:06:30;;;;;;;0.50;0.50;;;;;14.50;96051.00;;;;5116453;28;20229;-61
2022/09/04 01:09:24;;;;;;;0.97;0.97;;;;;14.40;96054.00;;;;5110972;28;20206;-61
2022/09/04 01:12:04;;;;;;;0.70;0.70;;;;;14.40;96026.00;;;;5116212;28;20319;-62
2022/09/04 01:14:38;;;;;;;0.70;0.70;;;;;14.50;96063.00;;;;5098200;28;20222;-61
2022/09/04 01:17:13;;;;;;;0.57;0.57;;;;;14.50;96060.00;;;;5116107;28;20222;-61
2022/09/04 01:19:53;;;;;;;0.60;0.60;;;;;14.50;96062.00;;;;5116017;28;20657;-61
2022/09/04 01:22:35;;;;;;;0.60;0.60;;;;;14.50;96067.00;;;;5115979;28;20213;-61
2022/09/04 01:25:25;;;;;;;0.70;0.70;;;;;14.50;96057.00;;;;5097953;28;20305;-62
2022/09/04 01:27:59;;;;;;;0.80;0.80;;;;;14.50;96059.00;;;;5116274;28;20190;-61
2022/09/04 01:30:36;;;;;;;0.60;0.60;;;;;14.30;96065.00;;;;5115829;28;20233;-61
2022/09/04 01:33:12;;;;;;;0.70;0.70;;;;;14.30;96077.00;;;;5097935;28;20297;-61
2022/09/04 01:35:47;;;;;;;0.70;0.70;;;;;14.20;96073.00;;;;5115696;28;20629;-61
2022/09/04 01:38:19;;;;;;;0.53;0.53;;;;;14.20;96070.00;;;;5115500;28;20272;-61
2022/09/04 01:40:52;;;;;;;0.80;0.80;;;;;14.10;96070.00;;;;5115528;28;20245;-61
2022/09/04 01:43:21;;;;;;;0.40;0.40;;;;;14.20;96067.00;;;;5115545;28;20271;-60
2022/09/04 01:46:16;;;;;;;0.73;0.73;;;;;14.20;96076.00;;;;5115489;28;20697;-62
2022/09/04 01:48:49;;;;;;;0.70;0.70;;;;;14.20;96079.00;;;;5115563;28;20234;-58
2022/09/04 01:51:32;;;;;;;0.80;0.80;;;;;14.20;96085.00;;;;5115514;28;20648;-63
2022/09/04 01:54:11;;;;;;;0.77;0.77;;;;;14.30;96088.00;;;;5097381;28;20198;-59
2022/09/04 01:56:43;;;;;;;0.80;0.80;;;;;14.30;96086.00;;;;5115364;28;20529;-61
2022/09/04 01:59:21;;;;;;;0.40;0.40;;;;;14.20;96081.00;;;;5115409;28;20282;-61
2022/09/04 02:01:57;;;;;;;0.70;0.70;;;;;14.20;96081.00;;;;5097510;28;20336;-61
2022/09/04 02:04:33;;;;;;;0.60;0.60;;;;;14.30;96082.00;;;;5115337;28;20226;-61
2022/09/04 02:07:10;;;;;;;1.73;0.83;;;;;14.20;96077.00;;;;5097275;28;20343;-61
2022/09/04 02:09:44;;;;;;;0.67;0.63;;;;;14.10;96082.00;;;;5097304;28;20289;-61
2022/09/04 02:12:24;;;;;;;0.60;0.60;;;;;14.10;96079.00;;;;5115396;28;20232;-63
2022/09/04 02:15:02;;;;;;;0.70;0.70;;;;;14.00;96077.00;;;;5115094;28;20194;-63
2022/09/04 02:17:40;;;;;;;0.90;0.90;;;;;14.00;96085.00;;;;5097364;28;20339;-61
2022/09/04 02:20:21;;;;;;;0.73;0.73;;;;;14.00;96090.00;;;;5115001;28;20625;-63
2022/09/04 02:22:58;;;;;;;0.50;0.50;;;;;14.00;96083.00;;;;5096976;28;20779;-60
2022/09/04 02:25:29;;;;;;;1.37;0.93;;;;;14.00;96087.00;;;;5114910;28;20221;-63
2022/09/04 02:28:17;;;;;;;0.70;0.70;;;;;14.00;96082.00;;;;5114913;28;20197;-63
2022/09/04 02:30:50;;;;;;;1.20;1.10;;;;;13.90;96085.00;;;;5114868;28;20371;-61
2022/09/04 02:33:26;;;;;;;0.60;0.60;;;;;14.00;96085.00;;;;5114869;28;20231;-61
2022/09/04 02:35:59;;;;;;;1.57;1.47;;;;;14.00;96084.00;;;;5096826;28;20260;-61
2022/09/04 02:38:36;;;;;;;1.30;1.27;;;;;14.00;96079.00;;;;5114737;28;20195;-61
2022/09/04 02:41:10;;;;;;;0.70;0.70;;;;;13.90;96081.00;;;;5114743;28;20233;-62
2022/09/04 02:43:56;;;;;;;0.80;0.80;;;;;13.80;96079.00;;;;5114496;28;20234;-60
2022/09/04 02:46:32;;;;;;;0.57;0.57;;;;;13.80;96087.00;;;;5114564;28;20209;-61
2022/09/04 02:49:08;;;;;;;0.90;0.90;;;;;13.70;96091.00;;;;5114669;28;20196;-61
2022/09/04 02:52:00;;;;;;;0.83;0.73;;;;;13.60;96079.00;;;;5113752;28;20279;-64
2022/09/04 02:54:47;;;;;;;0.50;0.50;;;;;13.50;96087.00;;;;5114572;28;20202;-61
2022/09/04 02:57:28;;;;;;;3.03;1.17;;;;;13.50;96087.00;;;;5114396;28;20264;-61
2022/09/04 03:00:04;;;;;;;0.40;0.40;;;;;13.50;96097.00;;;;5096504;28;20201;-61
2022/09/04 03:02:38;;;;;;;0.70;0.70;;;;;13.60;96094.00;;;;5114336;28;20232;-62
2022/09/04 03:05:11;;;;;;;0.80;0.80;;;;;13.60;96099.00;;;;5114402;28;20289;-61
2022/09/04 03:07:44;;;;;;;1.13;1.13;;;;;13.60;96097.00;;;;5114253;28;20216;-61
2022/09/04 03:10:17;;;;;;;0.73;0.73;;;;;13.50;96091.00;;;;5114267;28;20217;-61
2022/09/04 03:12:49;;;;;;;0.53;0.53;;;;;13.40;96093.00;;;;5114231;28;20633;-61
2022/09/04 03:15:26;;;;;;;0.50;0.50;;;;;13.40;96097.00;;;;5114124;28;20226;-61
2022/09/04 03:18:01;;;;;;;0.67;0.67;;;;;13.30;96105.00;;;;5114042;28;20210;-61
2022/09/04 03:20:36;;;;;;;0.47;0.47;;;;;13.40;96090.00;;;;5114132;28;20194;-61
2022/09/04 03:23:11;;;;;;;0.70;0.70;;;;;13.40;96101.00;;;;5114093;28;20204;-59
2022/09/04 03:26:13;;;;;;;1.40;1.40;;;;;13.40;96102.00;;;;5096106;28;20777;-61
2022/09/04 03:28:57;;;;;;;0.53;0.53;;;14.10;92.70;13.20;96108.00;;;;5113936;28;20289;-61
2022/09/04 03:31:32;;;;;;;0.50;0.50;;;13.80;92.50;13.10;96105.00;;;;5113756;28;20213;-61
2022/09/04 03:34:17;;;;;;;0.60;0.60;;;13.80;93.50;13.00;96108.00;;;;5113896;28;20710;-61
2022/09/04 03:37:05;;;;;;;0.50;0.50;;;13.80;93.40;13.00;96107.00;;;;5113897;28;20221;-61
2022/09/04 03:39:49;;;;;;;0.50;0.50;;;13.70;95.00;13.00;96104.00;;;;5095950;28;20648;-61
2022/09/04 03:42:31;;;;;;;0.50;0.50;;;13.60;93.80;13.00;96113.00;;;;5095962;28;20612;-63
2022/09/04 03:45:15;;;;;;;0.87;0.87;;;13.60;93.80;13.00;96108.00;;;;5113731;28;20287;-60
2022/09/04 03:47:59;;;;;;;0.57;0.57;;;13.60;94.70;12.90;96107.00;;;;5113677;28;20313;-61
2022/09/04 03:50:38;;;;;;;1.00;0.97;;;13.50;94.50;12.70;96104.00;;;;5113688;28;20216;-61
2022/09/04 03:53:18;;;;;;;0.50;0.50;;;13.40;94.20;12.70;96100.00;;;;5113568;28;20537;-61
2022/09/04 03:56:43;;;;;;;0.50;0.50;;;13.40;95.10;12.80;96111.00;;;;5113675;28;20279;-61
2022/09/04 03:59:24;;;;;;;0.40;0.40;;;13.40;95.10;12.80;96117.00;;;;5012620;28;20240;-61
2022/09/04 04:02:00;;;;;;;0.50;0.50;;;13.50;95.40;12.80;96115.00;;;;5091673;28;20268;-61
2022/09/04 04:05:12;;;;;;;0.63;0.63;;;13.40;95.80;12.80;96118.00;;;;5117076;28;20551;-61
2022/09/04 04:07:54;;;;;;;0.70;0.70;;;13.40;96.40;12.80;96117.00;;;;5117089;28;20213;-60
2022/09/04 04:10:32;;;;;;;0.60;0.60;;;13.50;94.90;12.90;96127.00;;;;5117203;28;20258;-61
2022/09/04 04:13:44;;;;;;;0.60;0.60;;;13.50;94.30;12.90;96126.00;;;;5116998;28;20282;-59
2022/09/04 04:16:29;;;;;;;0.50;0.50;;;13.60;94.90;12.90;96138.00;;;;5084326;28;20293;-60
2022/09/04 04:19:25;;;;;;;0.50;0.50;;;13.60;94.70;12.90;96132.00;;;;5116907;28;20251;-60
2022/09/04 04:22:20;;;;;;;0.50;0.50;;;13.60;94.40;12.90;96132.00;;;;5116992;28;20270;-61
2022/09/04 04:25:08;;;;;;;0.73;0.73;;;13.60;93.90;13.00;96133.00;;;;5116924;28;20304;-61
2022/09/04 04:28:06;;;;;;;0.50;0.50;;;13.60;93.90;13.00;96145.00;;;;5116862;28;20742;-64
2022/09/04 04:30:47;;;;;;;0.60;0.60;;;13.70;93.90;12.90;96137.00;;;;5098749;28;20645;-59
2022/09/04 04:33:43;;;;;;;0.70;0.70;;;13.70;94.10;12.80;96142.00;;;;5116585;28;20247;-61
2022/09/04 04:36:23;;;;;;;0.90;0.90;;;13.60;94.00;12.70;96146.00;;;;5098766;28;20210;-61
2022/09/04 04:39:13;;;;;;;0.50;0.50;;;13.50;93.90;12.80;96151.00;;;;5116640;28;20668;-61
2022/09/04 04:42:10;;;;;;;0.50;0.50;;;13.40;93.70;12.80;96160.00;;;;5098765;28;20258;-61
2022/09/04 04:49:03;;;;;;;0.70;0.70;;;13.50;92.30;12.80;96160.00;;;;5056610;28;20320;-61
2022/09/04 04:51:52;;;;;;;4.13;1.33;;;13.40;92.70;12.80;96165.00;;;;5116463;28;20238;-61
2022/09/04 04:54:43;;;;;;;0.50;0.50;;;13.50;93.80;12.80;96162.00;;;;5116432;28;20214;-62
2022/09/04 04:57:24;;;;;;;0.93;0.93;;;13.50;92.90;12.60;96169.00;;;;5116373;28;20689;-60
2022/09/04 05:00:05;;;;;;;0.67;0.67;;;13.30;92.50;12.50;96169.00;;;;5116519;28;20215;-61
2022/09/04 05:02:42;;;;;;;0.60;0.60;;;13.20;93.00;12.50;96170.00;;;;5116376;28;20218;-61
2022/09/04 05:05:17;;;;;;;0.50;0.50;;;13.10;94.10;12.50;96172.00;;;;5116355;28;20251;-61
2022/09/04 05:08:02;;;;;;;0.90;0.90;;;13.10;95.00;12.60;96184.00;;;;5116242;28;20291;-61
2022/09/04 05:10:37;;;;;;;0.77;0.77;;;13.20;93.30;12.50;96174.00;;;;5116402;28;20217;-61
2022/09/04 05:13:23;;;;;;;0.50;0.50;;;13.10;94.30;12.50;96185.00;;;;5115654;28;20233;-61
2022/09/04 05:16:04;;;;;;;0.40;0.40;;;13.10;95.40;12.50;96189.00;;;;5116139;28;20641;-59
2022/09/04 05:18:36;;;;;;;0.50;0.50;;;13.20;94.70;12.50;96188.00;;;;5116060;28;20665;-61
2022/09/04 05:21:16;;;;;;;0.63;0.63;;;13.20;95.30;12.60;96198.00;;;;5116101;28;20290;-61
2022/09/04 05:23:53;;;;;;;0.50;0.50;;;13.20;94.50;12.60;96207.00;;;;5115946;28;20217;-61
2022/09/04 05:26:32;;;;;;;0.50;0.50;;;13.20;94.60;12.70;96203.00;;;;5116207;28;20238;-61
2022/09/04 05:29:12;;;;;;;0.50;0.50;;;13.30;94.60;12.80;96213.00;;;;5115961;28;20239;-61
2022/09/04 05:31:51;;;;;;;0.50;0.50;;;13.40;93.90;12.90;96211.00;;;;5115967;28;20286;-61
2022/09/04 05:34:32;;;;;;;0.50;0.50;;;13.50;93.60;12.90;96215.00;;;;5115745;28;20221;-60
2022/09/04 05:37:12;;;;;;;0.47;0.47;;;13.60;93.30;13.00;96227.00;;;;5115806;28;20198;-61
2022/09/04 05:39:56;;;;;;;0.50;0.50;;;;;13.00;96234.00;;;;5116099;28;20205;-61
2022/09/04 05:42:42;;;;;;;1.00;1.00;;;;;12.90;96236.00;;;;5115817;28;20194;-61
2022/09/04 05:45:20;;;;;;;0.50;0.50;;;;;12.90;96243.00;;;;5115767;28;20198;-61
2022/09/04 05:48:00;;;;;;;0.50;0.50;;;;;13.00;96237.00;;;;5115674;28;20202;-61
2022/09/04 05:50:57;;;;;;;0.60;0.60;;;;;13.00;96240.00;;;;5115720;28;20647;-61
2022/09/04 05:53:47;;;;;;;0.40;0.40;;;;;13.10;96257.00;;;;5107200;28;20233;-61
2022/09/04 05:56:51;;;;;;;0.50;0.50;;;;;13.00;96250.00;;;;5115490;28;20637;-61
2022/09/04 05:59:42;;;;;;;0.50;0.50;;;;;13.00;96260.00;;;;5115389;28;20217;-61
2022/09/04 06:02:29;;;;;;;0.63;0.63;;;;;13.00;96252.00;;;;5115356;28;20182;-61
2022/09/04 06:05:12;;;;;;;0.90;0.90;;;;;13.10;96257.00;;;;5097434;28;20224;-61
2022/09/04 06:07:46;;;;;;;0.50;0.50;;;;;13.20;96253.00;;;;5115421;28;20630;-61
2022/09/04 06:10:20;;;;;;;0.50;0.50;;;;;13.20;96254.00;;;;5115261;28;20270;-61
2022/09/04 06:13:13;;;;;;;0.53;0.53;;;;;13.20;96251.00;;;;5115135;28;20276;-61
2022/09/04 06:15:57;;;;;;;0.50;0.50;;;;;13.20;96261.00;;;;5115224;28;20635;-61
2022/09/04 06:18:51;;;;;;;0.50;0.50;;;;;13.30;96263.00;;;;5115068;28;20198;-61
2022/09/04 06:21:46;;;;;;;0.50;0.50;;;;;13.30;96267.00;;;;5114633;28;20212;-61
2022/09/04 06:24:36;;;;;;;0.30;0.30;;;;;13.40;96266.00;;;;5096975;28;20854;-61
2022/09/04 06:27:32;;;;;;;0.47;0.47;;;;;13.50;96276.00;;;;5114253;28;20190;-61
2022/09/04 06:30:07;;;;;;;0.53;0.53;;;;;13.60;96269.00;;;;5114980;28;20217;-64
2022/09/04 06:33:01;;;;;;;0.50;0.50;;;;;13.70;96280.00;;;;5097147;28;20222;-61
2022/09/04 06:35:54;;;;;;;0.80;0.80;;;;;13.70;96278.00;;;;5115121;28;20500;-61
2022/09/04 06:38:37;;;;;;;0.67;0.67;;;;;13.80;96277.00;;;;5086110;28;20537;-61
2022/09/04 06:41:26;;;;;;;0.70;0.70;;;;;13.90;96274.00;;;;5114839;28;20642;-61
2022/09/04 06:44:04;;;;;;;0.50;0.50;;;;;14.10;96279.00;;;;5114822;28;20280;-61
2022/09/04 06:46:38;;;;;;;0.60;0.60;;;;;14.20;96275.00;;;;5114636;28;20201;-60
2022/09/04 06:49:09;;;;;;;0.50;0.50;;;;;14.00;96283.00;;;;5114599;28;20304;-61
2022/09/04 06:52:04;;;;;;;0.70;0.70;;;;;14.20;96284.00;;;;5114563;28;20561;-61
2022/09/04 06:54:45;;;;;;;0.80;0.80;;;;;14.30;96285.00;;;;5114567;28;20673;-61
2022/09/04 06:57:37;;;;;;;0.60;0.60;;;;;14.50;96286.00;;;;5114584;28;20272;-61
2022/09/04 07:00:07;;;;;;;0.50;0.50;;;;;14.60;96292.00;;;;5096390;28;20750;-59
2022/09/04 07:03:03;;;;;;;0.60;0.60;;;;;14.70;96302.00;;;;5114488;28;20629;-61
2022/09/04 07:05:40;;;;;;;0.90;0.90;;;;;14.80;96296.00;;;;5106253;28;20280;-61
2022/09/04 07:08:20;;;;;;;0.80;0.80;;;;;15.00;96302.00;;;;5114280;28;20276;-61
2022/09/04 07:10:57;;;;;;;0.40;0.40;;;;;15.00;96310.00;;;;5096435;28;20553;-61
2022/09/04 07:13:48;;;;;;;0.53;0.53;;;;;15.20;96301.00;;;;5114323;28;20221;-61
2022/09/04 07:16:34;;;;;;;0.57;0.57;;;;;15.40;96305.00;;;;5114166;28;20208;-61
2022/09/04 07:19:24;;;;;;;0.50;0.50;;;;;15.60;96312.00;;;;5096211;28;20209;-58
2022/09/04 07:22:03;;;;;;;0.50;0.50;;;;;15.70;96309.00;;;;5114278;28;20221;-61
2022/09/04 07:25:00;;;;;;;0.60;0.60;;;;;15.80;96310.00;;;;5114040;28;20224;-61
2022/09/04 07:27:43;;;;;;;0.80;0.80;;;;;15.90;96308.00;;;;5113922;28;20659;-61
2022/09/04 07:30:13;;;;;;;0.53;0.53;;;;;16.10;96310.00;;;;5113937;28;20217;-61
2022/09/04 07:32:45;;;;;;;0.80;0.80;;;;;16.20;96317.00;;;;5113876;28;20236;-61
2022/09/04 07:35:19;;;;;;;0.63;0.63;;;;;16.30;96311.00;;;;5113978;28;20633;-61
2022/09/04 07:37:57;;;;;;;0.87;0.87;;;;;16.40;96317.00;;;;5113613;28;20209;-60
2022/09/04 07:40:33;;;;;;;0.90;0.90;;;;;16.50;96323.00;;;;5113785;28;20252;-61
2022/09/04 07:43:06;;;;;;;0.50;0.50;;;;;16.60;96323.00;;;;5113903;28;20205;-61
2022/09/04 07:45:36;;;;;;;0.50;0.50;;;;;16.80;96332.00;;;;5113626;28;20218;-61
2022/09/04 07:48:16;;;;;;;0.60;0.60;;;;;17.10;96340.00;;;;5114072;28;20268;-63
2022/09/04 07:51:02;;;;;;;0.90;0.90;;;;;17.20;96326.00;;;;5113852;28;20668;-59
2022/09/04 07:53:48;;;;;;;1.00;1.00;;;;;17.30;96335.00;;;;5113619;28;20217;-61
2022/09/04 07:56:24;;;;;;;0.40;0.40;;;;;17.40;96332.00;;;;5113629;28;20236;-61
2022/09/04 07:59:21;;;;;;;0.50;0.50;;;;;17.60;96329.00;;;;5113691;28;20213;-61
2022/09/04 08:02:09;;;;;;;0.80;0.80;;;;;17.70;96327.00;;;;5113136;28;20296;-61
2022/09/04 08:04:57;;;;;;;0.87;0.87;;;;;17.90;96333.00;;;;5095535;28;20289;-61
2022/09/04 08:07:47;;;;;;;0.53;0.53;;;;;18.00;96338.00;;;;5113661;28;20206;-61
2022/09/04 08:10:25;;;;;;;0.40;0.40;;;;;18.20;96337.00;;;;5113613;28;20294;-61
2022/09/04 08:13:21;;;;;;;0.93;0.93;;;;;18.50;96347.00;;;;5113389;28;20237;-61
2022/09/04 08:15:55;;;;;;;0.30;0.30;;;;;18.70;96346.00;;;;5113484;28;20317;-61
2022/09/04 08:18:35;;;;;;;0.80;0.80;;;;;18.70;96350.00;;;;5113531;28;20194;-62
2022/09/04 08:21:16;;;;;;;1.60;0.80;;;;;18.80;96349.00;;;;5113434;28;20221;-62
2022/09/04 08:24:03;;;;;;;0.70;0.70;;;;;19.10;96351.00;;;;5095346;28;20300;-62
2022/09/04 08:26:56;;;;;;;0.60;0.60;;;;;19.20;96358.00;;;;5113322;28;20561;-59
2022/09/04 08:29:49;;;;;;;0.53;0.53;;;;;19.40;96360.00;;;;5113429;28;20186;-62
2022/09/04 08:32:32;;;;;;;0.53;0.53;;;;;19.50;96355.00;;;;5113133;28;20229;-60
2022/09/04 08:35:17;;;;;;;0.53;0.53;;;;;19.70;96349.00;;;;5113156;28;20319;-61
2022/09/04 08:37:58;;;;;;;0.50;0.50;;;;;19.90;96362.00;;;;5113216;28;20290;-62
2022/09/04 08:41:05;;;;;;;0.50;0.50;;;;;20.10;96353.00;;;;5112986;28;20202;-61
2022/09/04 08:43:54;;;;;;;0.40;0.40;;;;;20.20;96353.00;;;;5076470;28;20661;-63
2022/09/04 08:47:12;;;;;;;0.67;0.67;;;;;20.40;96369.00;;;;5112988;28;20205;-62
2022/09/04 08:50:16;;;;;;;1.80;1.23;;;;;20.60;96362.00;;;;5012785;28;20212;-61
2022/09/04 08:53:16;;;;;;;0.40;0.40;;;;;20.70;96365.00;;;;5065559;28;20675;-61
2022/09/04 08:56:05;;;;;;;0.67;0.67;;;;;20.90;96366.00;;;;5075416;28;20650;-59
2022/09/04 08:59:08;;;;;;;0.43;0.43;;;;;21.00;96365.00;;;;5116466;28;20201;-62
2022/09/04 09:02:17;;;;;;;0.60;0.60;;;;;21.00;96362.00;;;;5116651;28;20280;-60
2022/09/04 09:05:21;;;;;;;0.50;0.50;;;;;21.20;96363.00;;;;5116401;28;20202;-62
2022/09/04 09:08:13;;;;;;;0.40;0.40;;;;;21.40;96359.00;;;;5116365;28;20306;-63
2022/09/04 09:11:06;;;;;;;0.50;0.50;;;;;21.50;96356.00;;;;5116224;28;20197;-63
2022/09/04 09:14:09;;;;;;;0.85;0.57;;;;;21.70;96365.00;;;;5069437;28;21134;-61
2022/09/04 09:16:43;;;;;;;0.75;0.75;;;;;21.70;96355.00;;;;5115289;28;20297;-61
2022/09/04 09:19:21;;;;;;;0.82;0.82;;;;;21.50;96324.00;;;;5116046;28;20215;-61
2022/09/04 09:22:08;;;;;;;0.43;0.43;;;;;21.70;96352.00;;;;5115992;28;20266;-61
2022/09/04 09:25:10;;;;;;;0.60;0.60;;;;;22.20;96350.00;;;;5115920;28;20633;-61
2022/09/04 09:28:22;;;;;;;0.43;0.43;;;;;22.40;96351.00;;;;5115889;28;20223;-57
2022/09/04 09:31:20;;;;;;;0.47;0.47;;;;;22.90;96359.00;;;;5097807;28;20194;-60
2022/09/04 09:34:42;;;;;;;0.90;0.90;;;;;22.80;96360.00;;;;5115676;28;20237;-60
2022/09/04 09:37:49;;;;;;;0.45;0.45;;;;;22.60;96344.00;;;;5115874;28;20197;-61
2022/09/04 09:40:44;;;;;;;0.60;0.60;;;;;22.90;96357.00;;;;5013472;28;20205;-59
2022/09/04 09:43:56;;;;;;;0.50;0.50;;;;;23.20;96358.00;;;;5111919;28;20685;-61
2022/09/04 09:47:11;;;;;;;0.70;0.70;;;;;23.20;96361.00;;;;5107219;28;20534;-62
2022/09/04 09:50:03;;;;;;;0.55;0.55;;;;;23.00;96367.00;;;;5107317;28;20249;-62
2022/09/04 09:53:14;;;;;;;0.40;0.40;;;;;22.80;96367.00;;;;5115528;28;20310;-62
2022/09/04 09:56:18;;;;;;;0.30;0.30;;;;;22.50;96372.00;;;;5115430;28;20614;-61
2022/09/04 09:59:08;;;;;;;0.82;0.82;;;;;22.40;96363.00;;;;5115499;28;20255;-63
2022/09/04 10:02:18;;;;;;;0.60;0.60;;;;;22.20;96366.00;;;;5094459;28;20264;-62
2022/09/04 10:05:18;;;;;;;0.50;0.50;;;;;22.00;96369.00;;;;5115206;28;20317;-62
2022/09/04 10:08:11;;;;;;;0.60;0.60;;;;;22.00;96367.00;;;;5115396;28;20277;-62
2022/09/04 10:11:08;;;;;;;0.50;0.50;;;;;22.00;96364.00;;;;5115172;28;20322;-62
2022/09/04 10:14:13;;;;;;;0.63;0.63;;;;;22.00;96367.00;;;;5027330;28;20234;-60
2022/09/04 10:17:17;;;;;;;0.95;0.95;;;;;22.00;96367.00;;;;5115238;28;20641;-62
2022/09/04 10:20:24;;;;;;;0.50;0.50;;;;;22.00;96366.00;;;;5097212;28;20745;-58
2022/09/04 10:23:21;;;;;;;0.43;0.43;;;;;22.10;96361.00;;;;5068702;28;20314;-59
2022/09/04 10:26:07;;;;;;;0.73;0.73;;;;;22.00;96359.00;;;;5115024;28;20217;-60
2022/09/04 10:29:17;;;;;;;0.77;0.77;;;;;22.10;96365.00;;;;5115047;28;20206;-60
2022/09/04 10:32:05;;;;;;;1.45;1.35;;;;;22.20;96361.00;;;;5055925;28;20328;-62
2022/09/04 10:35:00;;;;;;;0.63;0.63;;;;;22.40;96362.00;;;;5114909;28;20347;-60
2022/09/04 10:37:41;;;;;;;0.43;0.43;;;;;22.30;96367.00;;;;5116812;28;20317;-62
2022/09/04 10:40:37;;;;;;;0.65;0.65;;;;;22.40;96351.00;;;;5114866;28;20189;-60
2022/09/04 10:43:37;;;;;;;0.70;0.70;;;;;22.20;96373.00;;;;5114830;28;20240;-60
2022/09/04 10:46:11;;;;;;;1.38;0.85;;;;;22.40;96352.00;;;;5114996;28;20284;-64
2022/09/04 10:49:21;;;;;;;0.50;0.50;;;;;22.50;96370.00;;;;5096722;28;20214;-61
2022/09/04 10:52:20;;;;;;;0.40;0.40;;;;;22.60;96368.00;;;;5114627;28;20201;-60
2022/09/04 10:55:16;;;;;;;0.50;0.50;;;;;22.70;96374.00;;;;5107052;28;20245;-60
2022/09/04 10:58:09;;;;;;;0.50;0.50;;;;;22.30;96355.00;;;;5114536;28;20222;-60
2022/09/04 11:00:51;;;;;;;0.55;0.55;;;;;22.30;96363.00;;;;5071711;28;20225;-60
2022/09/04 11:03:52;;;;;;;0.50;0.50;;;;;22.40;96361.00;;;;5114515;28;20217;-60
2022/09/04 11:06:48;;;;;;;0.73;0.73;;;;;23.00;96339.00;;;;5114402;28;20655;-61
2022/09/04 11:09:39;;;;;;;0.40;0.40;;;;;23.90;96342.00;;;;5114372;28;20202;-60
2022/09/04 11:12:36;;;;;;;0.50;0.50;;;;;24.30;96339.00;;;;5113762;28;20192;-60
2022/09/04 11:15:30;;;;;;;0.55;0.55;;;;;24.80;96337.00;;;;5071917;28;20587;-60
2022/09/04 11:18:42;;;;;;;0.60;0.60;;;;;25.20;96340.00;;;;5114141;28;20272;-60
2022/09/04 11:21:53;;;;;;;0.40;0.40;;;;;25.30;96333.00;;;;5021887;28;20233;-60
2022/09/04 11:24:59;;;;;;;0.45;0.45;;;;;25.30;96331.00;;;;5114114;28;20280;-60
2022/09/04 11:28:04;;;;;;;0.40;0.40;;;;;25.90;96336.00;;;;5095932;28;20225;-60
2022/09/04 11:30:47;;;;;;;0.40;0.40;;;;;26.10;96332.00;;;;5112284;28;20214;-60
2022/09/04 11:33:54;;;;;;;0.40;0.40;;;;;26.20;96332.00;;;;5113811;28;20225;-60
2022/09/04 11:36:49;;;;;;;0.60;0.60;;;;;26.40;96360.00;;;;5113918;28;20194;-58
2022/09/04 11:39:46;;;;;;;0.80;0.80;;;;;26.10;96337.00;;;;5113802;28;20660;-61
2022/09/04 11:42:40;;;;;;;0.43;0.43;;;;;26.20;96347.00;;;;5113857;28;20198;-60
2022/09/04 11:45:31;;;;;;;0.70;0.70;;;;;25.70;96355.00;;;;5113939;28;20276;-61
2022/09/04 11:48:25;;;;;;;0.50;0.50;;;;;25.60;96334.00;;;;5113845;28;20223;-60
2022/09/04 11:51:09;;;;;;;0.70;0.70;;;;;25.50;96351.00;;;;5113672;28;20217;-60
2022/09/04 11:53:59;;;;;;;0.40;0.40;;;;;25.10;96357.00;;;;5113541;28;20221;-60
2022/09/04 11:57:01;;;;;;;0.80;0.80;;;;;24.70;96361.00;;;;5113688;28;20243;-60
2022/09/04 11:59:45;;;;;;;0.60;0.60;;;;;24.90;96367.00;;;;5095618;28;20194;-58
2022/09/04 12:02:46;;;;;;;0.82;0.80;;;;;25.10;96370.00;;;;5113549;28;20174;-60
2022/09/04 12:05:38;;;;;;;0.50;0.50;;;;;25.20;96363.00;;;;5095555;28;20214;-60
2022/09/04 12:08:26;;;;;;;0.47;0.47;;;;;25.30;96383.00;;;;5115161;28;20584;-60
2022/09/04 12:11:10;;;;;;;0.60;0.60;;;;;25.10;96373.00;;;;5117714;28;20186;-60
2022/09/04 12:13:56;;;;;;;1.65;1.27;;;;;25.00;96371.00;;;;5116100;28;20265;-60
2022/09/04 12:16:49;;;;;;;0.40;0.40;;;;;25.10;96371.00;;;;5124861;28;20205;-60
2022/09/04 12:19:42;;;;;;;0.70;0.70;;;;;24.90;96377.00;;;;5098646;28;20292;-60
2022/09/04 12:22:40;;;;;;;0.60;0.60;;;;;25.00;96371.00;;;;5113180;28;20221;-60
2022/09/04 12:25:41;;;;;;;1.50;1.42;;;;;25.40;96376.00;;;;5115923;28;20626;-60
2022/09/04 12:28:39;;;;;;;1.13;1.13;;;;;25.30;96354.00;;;;5098836;28;20307;-61
2022/09/04 12:31:22;;;;;;;0.70;0.70;;;;;25.80;96355.00;;;;5116873;28;20212;-59
2022/09/04 12:34:06;;;;;;;0.52;0.52;;;;;26.70;96349.00;;;;5116761;28;20256;-60
2022/09/04 12:37:10;;;;;;;0.43;0.43;;;;;27.20;96350.00;;;;5116745;28;20251;-60
2022/09/04 12:40:05;;;;;;;1.30;1.00;;;;;27.50;96350.00;;;;5098739;28;20612;-60
2022/09/04 12:42:41;;;;;;;0.40;0.40;;;;;27.60;96352.00;;;;5116719;28;20205;-63
2022/09/04 12:45:20;;;;;;;0.50;0.50;;;;;27.30;96376.00;;;;5116583;28;20285;-64
2022/09/04 12:47:58;;;;;;;0.75;0.75;;;;;27.60;96356.00;;;;5116585;28;20625;-60
2022/09/04 12:50:35;;;;;;;0.50;0.50;;;;;27.40;96356.00;;;;5116518;28;20228;-60
2022/09/04 12:53:32;;;;;;;0.50;0.50;;;;;28.10;96362.00;;;;5116458;28;20293;-60
2022/09/04 12:56:09;;;;;;;0.43;0.43;;;;;28.30;96363.00;;;;5116185;28;20241;-60
2022/09/04 12:58:51;;;;;;;0.60;0.60;;;;;28.40;96361.00;;;;5116161;28;20225;-60
2022/09/04 13:01:30;;;;;;;0.55;0.55;;;;;28.60;96364.00;;;;5116214;28;20221;-60
2022/09/04 13:04:11;;;;;;;0.45;0.45;;;;;28.70;96363.00;;;;5116123;28;20236;-61
2022/09/04 13:06:55;;;;;;;0.38;0.38;;;;;28.70;96362.00;;;;5115878;28;20349;-57
2022/09/04 13:09:33;;;;;;;0.65;0.65;;;;;29.00;96367.00;;;;5116029;28;20193;-57
2022/09/04 13:12:11;;;;;;;0.80;0.80;;;;;28.90;96370.00;;;;5116246;28;20300;-60
2022/09/04 13:15:18;;;;;;;0.60;0.60;;;;;29.00;96363.00;;;;5116017;28;20284;-61
2022/09/04 13:17:52;;;;;;;0.63;0.63;;;;;28.60;96370.00;;;;5116021;28;20244;-59
2022/09/04 13:20:28;;;;;;;0.52;0.52;;;;;28.70;96389.00;;;;5115928;28;20212;-60
2022/09/04 13:23:14;;;;;;;0.50;0.50;;;;;28.90;96370.00;;;;5115907;28;20286;-60
2022/09/04 13:25:56;;;;;;;0.50;0.50;;;;;29.70;96370.00;;;;5098136;28;20405;-60
2022/09/04 13:28:36;;;;;;;0.57;0.57;;;;;28.50;96396.00;;;;5115898;28;20224;-60
2022/09/04 13:31:32;;;;;;;0.68;0.68;;;;;28.00;96398.00;;;;5115847;28;20192;-59
2022/09/04 13:34:12;;;;;;;0.43;0.40;;;;;27.50;96388.00;;;;5115704;28;20252;-60
2022/09/04 13:36:51;;;;;;;0.30;0.30;;;;;27.40;96386.00;;;;5115661;28;20643;-60
2022/09/04 13:39:43;;;;;;;1.02;1.02;;;;;27.80;96374.00;;;;5115609;28;20346;-60
2022/09/04 13:42:45;;;;;;;2.65;0.88;;;;;28.50;96366.00;;;;5115549;28;20255;-60